sensor_id;sensor_type;location;lat;lon;timestamp;pressure;altitude;pressure_sealevel;temperature;humidity
76378;BME280;65200;49.500;8.654;2023-08-08T00:01:58;100559.34;;;13.66;85.92
76378;BME280;65200;49.500;8.654;2023-08-08T00:04:24;100558.94;;;13.76;85.21
76378;BME280;65200;49.500;8.654;2023-08-08T00:06:51;100557.94;;;13.77;84.49
76378;BME280;65200;49.500;8.654;2023-08-08T00:09:18;100563.53;;;13.82;83.63
76378;BME280;65200;49.500;8.654;2023-08-08T00:11:45;100563.75;;;13.87;84.97
76378;BME280;65200;49.500;8.654;2023-08-08T00:14:11;100568.06;;;13.82;84.96
76378;BME280;65200;49.500;8.654;2023-08-08T00:16:38;100560.00;;;13.82;84.91
76378;BME280;65200;49.500;8.654;2023-08-08T00:19:04;100558.13;;;13.75;85.23
76378;BME280;65200;49.500;8.654;2023-08-08T00:21:31;100559.16;;;13.74;85.51
76378;BME280;65200;49.500;8.654;2023-08-08T00:23:57;100558.94;;;13.76;86.99
76378;BME280;65200;49.500;8.654;2023-08-08T00:26:25;100559.16;;;13.74;87.17
76378;BME280;65200;49.500;8.654;2023-08-08T00:28:51;100552.97;;;13.81;87.12
76378;BME280;65200;49.500;8.654;2023-08-08T00:31:18;100549.22;;;13.75;85.79
76378;BME280;65200;49.500;8.654;2023-08-08T00:33:45;100550.06;;;13.75;86.66
76378;BME280;65200;49.500;8.654;2023-08-08T00:36:11;100546.94;;;13.72;86.63
76378;BME280;65200;49.500;8.654;2023-08-08T00:38:38;100547.75;;;13.72;87.83
76378;BME280;65200;49.500;8.654;2023-08-08T00:41:04;100543.63;;;13.76;85.71
76378;BME280;65200;49.500;8.654;2023-08-08T00:43:32;100540.50;;;13.66;87.21
76378;BME280;65200;49.500;8.654;2023-08-08T00:45:58;100535.94;;;13.60;88.14
76378;BME280;65200;49.500;8.654;2023-08-08T00:48:25;100538.84;;;13.52;88.14
76378;BME280;65200;49.500;8.654;2023-08-08T00:50:52;100542.53;;;13.51;88.44
76378;BME280;65200;49.500;8.654;2023-08-08T00:53:19;100548.13;;;13.50;88.45
76378;BME280;65200;49.500;8.654;2023-08-08T00:55:47;100551.25;;;13.53;87.98
76378;BME280;65200;49.500;8.654;2023-08-08T00:58:15;100549.59;;;13.52;87.51
76378;BME280;65200;49.500;8.654;2023-08-08T01:00:43;100538.41;;;13.55;87.49
76378;BME280;65200;49.500;8.654;2023-08-08T01:13:17;100526.78;;;13.35;88.69
76378;BME280;65200;49.500;8.654;2023-08-08T01:15:48;100536.94;;;13.33;88.72
76378;BME280;65200;49.500;8.654;2023-08-08T01:18:16;100535.06;;;13.34;88.38
76378;BME280;65200;49.500;8.654;2023-08-08T01:20:43;100536.09;;;13.26;90.23
76378;BME280;65200;49.500;8.654;2023-08-08T01:23:14;100536.50;;;13.23;90.65
76378;BME280;65200;49.500;8.654;2023-08-08T01:25:44;100535.44;;;13.18;90.19
76378;BME280;65200;49.500;8.654;2023-08-08T01:28:12;100532.31;;;13.21;89.25
76378;BME280;65200;49.500;8.654;2023-08-08T01:30:38;100526.53;;;13.17;90.49
76378;BME280;65200;49.500;8.654;2023-08-08T01:33:06;100526.09;;;13.07;91.84
76378;BME280;65200;49.500;8.654;2023-08-08T01:35:37;100528.78;;;13.01;91.31
76378;BME280;65200;49.500;8.654;2023-08-08T01:38:08;100527.06;;;13.00;91.61
76378;BME280;65200;49.500;8.654;2023-08-08T01:40:36;100531.06;;;13.04;92.10
76378;BME280;65200;49.500;8.654;2023-08-08T01:43:06;100528.78;;;13.01;91.66
76378;BME280;65200;49.500;8.654;2023-08-08T01:45:33;100536.63;;;13.02;91.44
76378;BME280;65200;49.500;8.654;2023-08-08T01:48:06;100534.50;;;12.98;90.86
76378;BME280;65200;49.500;8.654;2023-08-08T01:50:32;100537.34;;;12.90;93.43
76378;BME280;65200;49.500;8.654;2023-08-08T01:52:59;100536.09;;;12.79;92.07
76378;BME280;65200;49.500;8.654;2023-08-08T01:55:26;100537.50;;;12.75;93.00
76378;BME280;65200;49.500;8.654;2023-08-08T01:57:53;100535.06;;;12.87;93.10
76378;BME280;65200;49.500;8.654;2023-08-08T02:00:20;100533.25;;;12.94;92.09
76378;BME280;65200;49.500;8.654;2023-08-08T02:02:47;100525.13;;;12.81;92.95
76378;BME280;65200;49.500;8.654;2023-08-08T02:05:13;100524.69;;;12.77;93.80
76378;BME280;65200;49.500;8.654;2023-08-08T02:07:40;100525.31;;;12.73;91.86
76378;BME280;65200;49.500;8.654;2023-08-08T02:10:07;100527.31;;;12.64;92.50
76378;BME280;65200;49.500;8.654;2023-08-08T02:12:34;100522.13;;;12.56;95.14
76378;BME280;65200;49.500;8.654;2023-08-08T02:15:00;100528.13;;;12.58;95.08
76378;BME280;65200;49.500;8.654;2023-08-08T02:17:28;100523.97;;;12.56;95.16
76378;BME280;65200;49.500;8.654;2023-08-08T02:19:55;100519.38;;;12.50;95.00
76378;BME280;65200;49.500;8.654;2023-08-08T02:22:22;100512.41;;;12.55;94.43
76378;BME280;65200;49.500;8.654;2023-08-08T02:24:48;100514.50;;;12.66;94.36
76378;BME280;65200;49.500;8.654;2023-08-08T02:27:14;100527.41;;;12.84;92.12
76378;BME280;65200;49.500;8.654;2023-08-08T02:29:41;100523.69;;;12.78;92.96
76378;BME280;65200;49.500;8.654;2023-08-08T02:32:07;100514.50;;;12.66;94.55
76378;BME280;65200;49.500;8.654;2023-08-08T02:34:35;100524.16;;;12.54;96.00
76378;BME280;65200;49.500;8.654;2023-08-08T02:37:02;100517.38;;;12.58;94.21
76378;BME280;65200;49.500;8.654;2023-08-08T02:39:28;100517.00;;;12.68;94.85
76378;BME280;65200;49.500;8.654;2023-08-08T02:41:55;100515.63;;;12.78;93.15
76378;BME280;65200;49.500;8.654;2023-08-08T02:44:21;100508.72;;;12.69;94.14
76378;BME280;65200;49.500;8.654;2023-08-08T02:46:47;100512.22;;;12.63;96.41
76378;BME280;65200;49.500;8.654;2023-08-08T02:49:14;100515.56;;;12.65;95.81
76378;BME280;65200;49.500;8.654;2023-08-08T02:51:42;100517.38;;;12.58;96.09
76378;BME280;65200;49.500;8.654;2023-08-08T02:54:08;100523.34;;;12.54;95.08
76378;BME280;65200;49.500;8.654;2023-08-08T02:56:35;100519.19;;;12.51;95.14
76378;BME280;65200;49.500;8.654;2023-08-08T02:59:01;100522.13;;;12.56;96.90
76378;BME280;65200;49.500;8.654;2023-08-08T03:01:27;100514.06;;;12.56;96.77
76378;BME280;65200;49.500;8.654;2023-08-08T03:03:54;100518.84;;;12.67;94.81
76378;BME280;65200;49.500;8.654;2023-08-08T03:06:20;100509.63;;;12.83;94.12
76378;BME280;65200;49.500;8.654;2023-08-08T03:08:48;100503.47;;;12.95;94.04
76378;BME280;65200;49.500;8.654;2023-08-08T03:11:14;100500.63;;;13.10;94.26
76378;BME280;65200;49.500;8.654;2023-08-08T03:13:41;100509.47;;;12.97;94.74
76378;BME280;65200;49.500;8.654;2023-08-08T03:16:07;100512.78;;;12.93;94.40
76378;BME280;65200;49.500;8.654;2023-08-08T03:18:34;100510.63;;;12.75;96.36
76378;BME280;65200;49.500;8.654;2023-08-08T03:21:00;100502.34;;;12.77;96.58
76378;BME280;65200;49.500;8.654;2023-08-08T03:23:27;100507.56;;;12.78;96.36
76378;BME280;65200;49.500;8.654;2023-08-08T03:25:54;100510.63;;;12.75;95.22
76378;BME280;65200;49.500;8.654;2023-08-08T03:28:21;100496.94;;;12.70;97.66
76378;BME280;65200;49.500;8.654;2023-08-08T03:30:47;100508.31;;;12.66;98.21
76378;BME280;65200;49.500;8.654;2023-08-08T03:33:14;100507.91;;;12.69;98.22
76378;BME280;65200;49.500;8.654;2023-08-08T03:35:40;100503.59;;;12.74;95.84
76378;BME280;65200;49.500;8.654;2023-08-08T03:38:08;100508.53;;;12.71;98.06
76378;BME280;65200;49.500;8.654;2023-08-08T03:40:35;100510.78;;;12.67;96.56
76378;BME280;65200;49.500;8.654;2023-08-08T03:43:03;100515.31;;;12.60;98.02
76378;BME280;65200;49.500;8.654;2023-08-08T03:45:30;100508.69;;;12.63;98.39
76378;BME280;65200;49.500;8.654;2023-08-08T03:47:56;100511.63;;;12.68;97.92
76378;BME280;65200;49.500;8.654;2023-08-08T03:50:22;100513.25;;;12.62;98.12
76378;BME280;65200;49.500;8.654;2023-08-08T03:52:49;100514.78;;;12.78;96.89
76378;BME280;65200;49.500;8.654;2023-08-08T03:55:15;100521.16;;;12.77;97.53
76378;BME280;65200;49.500;8.654;2023-08-08T03:57:42;100513.53;;;12.80;96.17
76378;BME280;65200;49.500;8.654;2023-08-08T04:00:10;100517.03;;;12.74;97.79
76378;BME280;65200;49.500;8.654;2023-08-08T04:02:37;100510.97;;;12.59;98.59
76378;BME280;65200;49.500;8.654;2023-08-08T04:05:04;100508.69;;;12.63;98.05
76378;BME280;65200;49.500;8.654;2023-08-08T04:07:30;100511.63;;;12.68;98.09
76378;BME280;65200;49.500;8.654;2023-08-08T04:09:57;100510.19;;;12.65;98.06
76378;BME280;65200;49.500;8.654;2023-08-08T04:12:23;100507.09;;;12.68;97.80
76378;BME280;65200;49.500;8.654;2023-08-08T04:14:50;100509.09;;;12.60;98.22
76378;BME280;65200;49.500;8.654;2023-08-08T04:17:17;100509.09;;;12.60;97.06
76378;BME280;65200;49.500;8.654;2023-08-08T04:19:44;100514.84;;;12.50;98.48
76378;BME280;65200;49.500;8.654;2023-08-08T04:22:10;100514.81;;;12.43;97.96
76378;BME280;65200;49.500;8.654;2023-08-08T04:24:37;100518.16;;;12.46;98.31
76378;BME280;65200;49.500;8.654;2023-08-08T04:27:04;100517.31;;;12.45;98.41
76378;BME280;65200;49.500;8.654;2023-08-08T04:29:30;100516.94;;;12.55;97.82
76378;BME280;65200;49.500;8.654;2023-08-08T04:31:57;100517.94;;;12.47;97.79
76378;BME280;65200;49.500;8.654;2023-08-08T04:34:24;100525.31;;;12.38;98.15
76378;BME280;65200;49.500;8.654;2023-08-08T04:36:51;100514.56;;;12.38;98.99
76378;BME280;65200;49.500;8.654;2023-08-08T04:39:17;100522.25;;;12.41;100.00
76378;BME280;65200;49.500;8.654;2023-08-08T04:41:44;100522.91;;;12.50;98.10
76378;BME280;65200;49.500;8.654;2023-08-08T04:44:10;100517.38;;;12.58;99.13
76378;BME280;65200;49.500;8.654;2023-08-08T04:46:37;100522.75;;;12.58;98.50
76378;BME280;65200;49.500;8.654;2023-08-08T04:49:03;100522.50;;;12.53;99.08
76378;BME280;65200;49.500;8.654;2023-08-08T04:51:32;100521.88;;;12.51;98.83
76378;BME280;65200;49.500;8.654;2023-08-08T04:53:58;100519.88;;;12.60;98.90
76378;BME280;65200;49.500;8.654;2023-08-08T04:56:25;100519.72;;;12.74;97.15
76378;BME280;65200;49.500;8.654;2023-08-08T04:58:51;100534.41;;;12.72;97.66
76378;BME280;65200;49.500;8.654;2023-08-08T05:01:18;100536.91;;;12.73;97.34
76378;BME280;65200;49.500;8.654;2023-08-08T05:03:45;100536.94;;;12.80;98.15
76378;BME280;65200;49.500;8.654;2023-08-08T05:06:12;100525.94;;;12.75;98.08
76378;BME280;65200;49.500;8.654;2023-08-08T05:08:39;100523.25;;;12.75;98.81
76378;BME280;65200;49.500;8.654;2023-08-08T05:11:06;100527.63;;;12.82;96.48
76378;BME280;65200;49.500;8.654;2023-08-08T05:13:32;100515.44;;;12.86;96.33
76378;BME280;65200;49.500;8.654;2023-08-08T05:15:59;100523.34;;;12.94;96.04
76378;BME280;65200;49.500;8.654;2023-08-08T05:18:25;100518.75;;;12.95;96.99
76378;BME280;65200;49.500;8.654;2023-08-08T05:20:51;100522.09;;;12.97;96.70
76378;BME280;65200;49.500;8.654;2023-08-08T05:23:18;100527.25;;;12.98;97.01
76378;BME280;65200;49.500;8.654;2023-08-08T05:25:46;100523.38;;;13.01;96.93
76378;BME280;65200;49.500;8.654;2023-08-08T05:28:12;100523.94;;;12.96;96.28
76378;BME280;65200;49.500;8.654;2023-08-08T05:30:39;100516.50;;;12.98;98.21
76378;BME280;65200;49.500;8.654;2023-08-08T05:33:05;100529.16;;;13.04;97.89
76378;BME280;65200;49.500;8.654;2023-08-08T05:35:31;100520.50;;;13.09;97.41
76378;BME280;65200;49.500;8.654;2023-08-08T05:37:58;100518.88;;;13.21;96.39
76378;BME280;65200;49.500;8.654;2023-08-08T05:40:24;100525.13;;;13.28;96.69
76378;BME280;65200;49.500;8.654;2023-08-08T05:42:52;100518.47;;;13.30;95.56
76378;BME280;65200;49.500;8.654;2023-08-08T05:45:19;100512.50;;;13.28;94.97
76378;BME280;65200;49.500;8.654;2023-08-08T05:47:45;100515.41;;;13.33;95.30
76378;BME280;65200;49.500;8.654;2023-08-08T05:50:11;100521.41;;;13.48;93.20
76378;BME280;65200;49.500;8.654;2023-08-08T05:52:38;100524.94;;;13.49;93.03
76378;BME280;65200;49.500;8.654;2023-08-08T05:55:05;100512.91;;;13.51;93.48
76378;BME280;65200;49.500;8.654;2023-08-08T05:57:31;100521.41;;;13.55;92.85
76378;BME280;65200;49.500;8.654;2023-08-08T05:59:59;100517.31;;;13.65;93.18
76378;BME280;65200;49.500;8.654;2023-08-08T06:02:26;100511.72;;;13.67;93.88
76378;BME280;65200;49.500;8.654;2023-08-08T06:04:52;100517.50;;;13.70;92.88
76378;BME280;65200;49.500;8.654;2023-08-08T06:07:19;100517.31;;;13.78;92.50
76378;BME280;65200;49.500;8.654;2023-08-08T06:09:45;100526.81;;;13.88;90.51
76378;BME280;65200;49.500;8.654;2023-08-08T06:12:12;100516.69;;;13.90;91.69
76378;BME280;65200;49.500;8.654;2023-08-08T06:14:38;100521.44;;;13.94;90.73
76378;BME280;65200;49.500;8.654;2023-08-08T06:17:06;100517.72;;;14.02;90.45
76378;BME280;65200;49.500;8.654;2023-08-08T06:19:33;100528.28;;;14.10;90.96
76378;BME280;65200;49.500;8.654;2023-08-08T06:21:59;100524.34;;;14.12;90.08
76378;BME280;65200;49.500;8.654;2023-08-08T06:24:26;100525.38;;;14.18;91.56
76378;BME280;65200;49.500;8.654;2023-08-08T06:26:52;100526.81;;;14.27;88.42
76378;BME280;65200;49.500;8.654;2023-08-08T06:29:19;100528.88;;;14.38;89.26
76378;BME280;65200;49.500;8.654;2023-08-08T06:31:45;100529.50;;;14.40;88.98
76378;BME280;65200;49.500;8.654;2023-08-08T06:34:13;100520.75;;;14.51;88.26
76378;BME280;65200;49.500;8.654;2023-08-08T06:36:40;100519.06;;;14.63;89.53
76378;BME280;65200;49.500;8.654;2023-08-08T06:39:07;100519.94;;;14.57;88.41
76378;BME280;65200;49.500;8.654;2023-08-08T06:41:33;100524.69;;;14.55;87.79
76378;BME280;65200;49.500;8.654;2023-08-08T06:44:00;100534.88;;;14.53;89.57
76378;BME280;65200;49.500;8.654;2023-08-08T06:46:27;100529.25;;;14.54;88.10
76378;BME280;65200;49.500;8.654;2023-08-08T06:48:54;100528.63;;;14.59;90.01
76378;BME280;65200;49.500;8.654;2023-08-08T06:51:25;100511.84;;;14.50;89.47
76378;BME280;65200;49.500;8.654;2023-08-08T06:53:52;100528.81;;;14.64;90.35
76378;BME280;65200;49.500;8.654;2023-08-08T06:56:18;100518.22;;;14.69;90.23
76378;BME280;65200;49.500;8.654;2023-08-08T06:58:45;100521.09;;;14.74;88.04
76378;BME280;65200;49.500;8.654;2023-08-08T07:01:11;100516.72;;;14.79;89.14
76378;BME280;65200;49.500;8.654;2023-08-08T07:03:38;100515.78;;;15.05;87.73
76378;BME280;65200;49.500;8.654;2023-08-08T07:06:05;100518.28;;;15.75;83.52
76378;BME280;65200;49.500;8.654;2023-08-08T07:08:33;100511.09;;;16.73;79.09
76378;BME280;65200;49.500;8.654;2023-08-08T07:10:59;100521.75;;;17.33;74.79
76378;BME280;65200;49.500;8.654;2023-08-08T07:13:26;100510.38;;;18.07;72.45
76378;BME280;65200;49.500;8.654;2023-08-08T07:15:53;100515.84;;;18.42;71.46
76378;BME280;65200;49.500;8.654;2023-08-08T07:18:19;100516.19;;;18.45;69.25
76378;BME280;65200;49.500;8.654;2023-08-08T07:20:46;100509.78;;;18.28;69.71
76378;BME280;65200;49.500;8.654;2023-08-08T07:23:12;100516.53;;;18.60;68.42
76378;BME280;65200;49.500;8.654;2023-08-08T07:25:40;100500.91;;;18.67;67.11
76378;BME280;65200;49.500;8.654;2023-08-08T07:28:06;100507.44;;;18.32;69.67
76378;BME280;65200;49.500;8.654;2023-08-08T07:30:34;100509.31;;;18.31;70.79
76378;BME280;65200;49.500;8.654;2023-08-08T07:33:00;100508.28;;;18.55;68.89
76378;BME280;65200;49.500;8.654;2023-08-08T07:35:27;100510.88;;;18.50;68.69
76378;BME280;65200;49.500;8.654;2023-08-08T07:37:53;100498.38;;;18.26;68.71
76378;BME280;65200;49.500;8.654;2023-08-08T07:40:20;100500.88;;;18.79;68.14
76378;BME280;65200;49.500;8.654;2023-08-08T07:42:49;100504.25;;;19.09;67.81
76378;BME280;65200;49.500;8.654;2023-08-08T07:45:16;100500.81;;;19.42;65.09
76378;BME280;65200;49.500;8.654;2023-08-08T07:47:43;100493.28;;;19.32;62.22
76378;BME280;65200;49.500;8.654;2023-08-08T07:50:09;100496.97;;;19.54;61.16
76378;BME280;65200;49.500;8.654;2023-08-08T07:52:36;100495.94;;;19.44;61.46
76378;BME280;65200;49.500;8.654;2023-08-08T07:55:04;100499.88;;;19.36;61.98
76378;BME280;65200;49.500;8.654;2023-08-08T07:57:31;100505.59;;;19.23;62.49
76378;BME280;65200;49.500;8.654;2023-08-08T08:00:01;100499.13;;;19.12;62.40
76378;BME280;65200;49.500;8.654;2023-08-08T08:02:32;100502.03;;;18.94;64.64
76378;BME280;65200;49.500;8.654;2023-08-08T08:04:59;100488.69;;;18.53;65.78
76378;BME280;65200;49.500;8.654;2023-08-08T08:07:26;100496.81;;;18.65;61.47
76378;BME280;65200;49.500;8.654;2023-08-08T08:09:53;100499.59;;;19.09;60.93
76378;BME280;65200;49.500;8.654;2023-08-08T08:12:19;100492.66;;;19.42;58.01
76378;BME280;65200;49.500;8.654;2023-08-08T08:14:45;100496.19;;;19.14;55.86
76378;BME280;65200;49.500;8.654;2023-08-08T08:17:13;100495.69;;;19.29;57.81
76378;BME280;65200;49.500;8.654;2023-08-08T08:19:40;100500.19;;;19.68;55.56
76378;BME280;65200;49.500;8.654;2023-08-08T08:22:06;100503.13;;;19.22;57.07
76378;BME280;65200;49.500;8.654;2023-08-08T08:24:33;100497.78;;;19.71;56.73
76378;BME280;65200;49.500;8.654;2023-08-08T08:27:00;100496.06;;;19.65;56.93
76378;BME280;65200;49.500;8.654;2023-08-08T08:29:26;100499.38;;;19.84;56.96
76378;BME280;65200;49.500;8.654;2023-08-08T08:31:53;100494.81;;;19.89;56.07
76378;BME280;65200;49.500;8.654;2023-08-08T08:34:21;100490.59;;;19.49;57.74
76378;BME280;65200;49.500;8.654;2023-08-08T08:36:47;100490.09;;;19.52;57.05
76378;BME280;65200;49.500;8.654;2023-08-08T08:39:14;100487.72;;;19.55;57.62
76378;BME280;65200;49.500;8.654;2023-08-08T08:41:40;100486.59;;;19.68;57.17
76378;BME280;65200;49.500;8.654;2023-08-08T08:44:07;100484.84;;;20.11;56.84
76378;BME280;65200;49.500;8.654;2023-08-08T08:46:35;100482.31;;;19.88;56.08
76378;BME280;65200;49.500;8.654;2023-08-08T08:49:02;100499.59;;;19.66;56.28
76378;BME280;65200;49.500;8.654;2023-08-08T08:51:34;100494.81;;;19.56;55.64
76378;BME280;65200;49.500;8.654;2023-08-08T08:54:01;100494.97;;;19.50;56.68
76378;BME280;65200;49.500;8.654;2023-08-08T08:56:28;100494.25;;;19.71;57.29
76378;BME280;65200;49.500;8.654;2023-08-08T08:58:55;100501.81;;;19.52;57.08
76378;BME280;65200;49.500;8.654;2023-08-08T09:01:22;100492.16;;;19.45;55.56
76378;BME280;65200;49.500;8.654;2023-08-08T09:03:49;100485.25;;;19.54;57.54
76378;BME280;65200;49.500;8.654;2023-08-08T09:06:16;100482.28;;;19.55;57.94
76378;BME280;65200;49.500;8.654;2023-08-08T09:08:45;100476.59;;;19.73;57.68
76378;BME280;65200;49.500;8.654;2023-08-08T09:11:13;100475.47;;;19.69;54.39
76378;BME280;65200;49.500;8.654;2023-08-08T09:13:40;100485.78;;;19.11;56.30
76378;BME280;65200;49.500;8.654;2023-08-08T09:16:07;100473.50;;;19.08;57.64
76378;BME280;65200;49.500;8.654;2023-08-08T09:18:34;100485.44;;;19.64;56.49
76378;BME280;65200;49.500;8.654;2023-08-08T09:21:03;100472.59;;;19.76;54.71
76378;BME280;65200;49.500;8.654;2023-08-08T09:23:30;100469.25;;;20.23;55.85
76378;BME280;65200;49.500;8.654;2023-08-08T09:25:58;100464.88;;;20.06;54.10
76378;BME280;65200;49.500;8.654;2023-08-08T09:28:24;100462.94;;;20.18;53.67
76378;BME280;65200;49.500;8.654;2023-08-08T09:30:51;100460.03;;;19.58;53.13
76378;BME280;65200;49.500;8.654;2023-08-08T09:33:18;100466.88;;;19.94;52.85
76378;BME280;65200;49.500;8.654;2023-08-08T09:35:45;100462.19;;;20.22;47.68
76378;BME280;65200;49.500;8.654;2023-08-08T09:38:12;100458.94;;;20.25;49.64
76378;BME280;65200;49.500;8.654;2023-08-08T09:40:38;100457.06;;;20.26;47.26
76378;BME280;65200;49.500;8.654;2023-08-08T09:43:07;100446.69;;;20.44;47.13
76378;BME280;65200;49.500;8.654;2023-08-08T09:45:37;100449.22;;;20.73;47.25
76378;BME280;65200;49.500;8.654;2023-08-08T09:48:05;100442.91;;;20.46;45.89
76378;BME280;65200;49.500;8.654;2023-08-08T09:50:33;100455.88;;;20.60;47.09
76378;BME280;65200;49.500;8.654;2023-08-08T09:53:01;100451.88;;;20.89;45.68
76378;BME280;65200;49.500;8.654;2023-08-08T09:55:28;100460.19;;;21.26;44.32
76378;BME280;65200;49.500;8.654;2023-08-08T09:57:54;100446.13;;;21.07;43.81
76378;BME280;65200;49.500;8.654;2023-08-08T10:00:22;100451.31;;;21.09;44.16
76378;BME280;65200;49.500;8.654;2023-08-08T10:02:50;100447.28;;;20.95;44.74
76378;BME280;65200;49.500;8.654;2023-08-08T10:05:17;100447.75;;;21.66;46.94
76378;BME280;65200;49.500;8.654;2023-08-08T10:07:45;100434.91;;;20.82;42.55
76378;BME280;65200;49.500;8.654;2023-08-08T10:10:11;100451.84;;;21.06;43.00
76378;BME280;65200;49.500;8.654;2023-08-08T10:12:39;100447.19;;;21.33;45.29
76378;BME280;65200;49.500;8.654;2023-08-08T10:15:07;100437.84;;;21.55;43.36
76378;BME280;65200;49.500;8.654;2023-08-08T10:17:36;100439.63;;;21.71;41.60
76378;BME280;65200;49.500;8.654;2023-08-08T10:20:04;100444.56;;;21.43;45.38
76378;BME280;65200;49.500;8.654;2023-08-08T10:22:37;100441.28;;;21.72;43.49
76378;BME280;65200;49.500;8.654;2023-08-08T10:25:04;100440.81;;;21.22;43.57
76378;BME280;65200;49.500;8.654;2023-08-08T10:27:31;100441.94;;;21.26;43.36
76378;BME280;65200;49.500;8.654;2023-08-08T10:30:02;100436.16;;;21.49;45.42
76378;BME280;65200;49.500;8.654;2023-08-08T10:32:40;100436.75;;;21.56;44.24
76378;BME280;65200;49.500;8.654;2023-08-08T10:35:08;100429.78;;;21.70;44.73
76378;BME280;65200;49.500;8.654;2023-08-08T10:37:36;100419.19;;;21.74;43.75
76378;BME280;65200;49.500;8.654;2023-08-08T10:40:02;100443.56;;;21.81;43.08
76378;BME280;65200;49.500;8.654;2023-08-08T10:42:31;100429.19;;;21.63;43.49
76378;BME280;65200;49.500;8.654;2023-08-08T10:44:59;100431.50;;;21.77;46.53
76378;BME280;65200;49.500;8.654;2023-08-08T10:47:30;100426.50;;;22.00;44.45
76378;BME280;65200;49.500;8.654;2023-08-08T10:50:03;100417.16;;;22.43;44.84
76378;BME280;65200;49.500;8.654;2023-08-08T10:52:30;100412.78;;;22.42;43.33
76378;BME280;65200;49.500;8.654;2023-08-08T10:54:57;100420.69;;;22.38;41.78
76378;BME280;65200;49.500;8.654;2023-08-08T10:57:24;100425.63;;;21.95;44.38
76378;BME280;65200;49.500;8.654;2023-08-08T10:59:51;100420.91;;;22.27;42.62
76378;BME280;65200;49.500;8.654;2023-08-08T11:02:19;100425.00;;;22.24;41.83
76378;BME280;65200;49.500;8.654;2023-08-08T11:04:45;100421.59;;;22.07;42.51
76378;BME280;65200;49.500;8.654;2023-08-08T11:07:14;100429.50;;;22.50;43.22
76378;BME280;65200;49.500;8.654;2023-08-08T11:09:40;100415.28;;;22.48;42.71
76378;BME280;65200;49.500;8.654;2023-08-08T11:12:13;100421.25;;;22.40;41.39
76378;BME280;65200;49.500;8.654;2023-08-08T11:14:40;100423.38;;;21.55;43.24
76378;BME280;65200;49.500;8.654;2023-08-08T11:17:07;100415.31;;;22.02;43.05
76378;BME280;65200;49.500;8.654;2023-08-08T11:19:38;100411.28;;;22.14;42.30
76378;BME280;65200;49.500;8.654;2023-08-08T11:22:09;100408.72;;;21.98;42.72
76378;BME280;65200;49.500;8.654;2023-08-08T11:24:37;100401.56;;;21.87;40.69
76378;BME280;65200;49.500;8.654;2023-08-08T11:27:04;100387.06;;;21.81;41.06
76378;BME280;65200;49.500;8.654;2023-08-08T11:29:30;100409.69;;;22.23;40.98
76378;BME280;65200;49.500;8.654;2023-08-08T11:31:59;100407.94;;;22.02;39.84
76378;BME280;65200;49.500;8.654;2023-08-08T11:34:26;100403.97;;;22.20;40.96
76378;BME280;65200;49.500;8.654;2023-08-08T11:36:53;100405.44;;;21.96;41.19
76378;BME280;65200;49.500;8.654;2023-08-08T11:39:20;100402.88;;;21.79;40.91
76378;BME280;65200;49.500;8.654;2023-08-08T11:41:48;100414.59;;;22.16;42.25
76378;BME280;65200;49.500;8.654;2023-08-08T11:44:15;100412.88;;;22.10;40.72
76378;BME280;65200;49.500;8.654;2023-08-08T11:46:44;100405.34;;;22.27;40.73
76378;BME280;65200;49.500;8.654;2023-08-08T11:49:13;100393.59;;;22.27;39.67
76378;BME280;65200;49.500;8.654;2023-08-08T11:51:42;100401.50;;;22.23;40.07
76378;BME280;65200;49.500;8.654;2023-08-08T11:54:09;100405.78;;;22.61;39.77
76378;BME280;65200;49.500;8.654;2023-08-08T11:56:36;100391.41;;;22.24;39.51
76378;BME280;65200;49.500;8.654;2023-08-08T11:59:04;100389.13;;;22.62;41.39
76378;BME280;65200;49.500;8.654;2023-08-08T12:01:32;100394.19;;;22.34;39.61
76378;BME280;65200;49.500;8.654;2023-08-08T12:04:04;100389.81;;;22.38;37.85
76378;BME280;65200;49.500;8.654;2023-08-08T12:06:31;100404.03;;;22.40;37.34
76378;BME280;65200;49.500;8.654;2023-08-08T12:09:01;100387.31;;;22.88;38.34
76378;BME280;65200;49.500;8.654;2023-08-08T12:11:27;100387.75;;;22.55;37.91
76378;BME280;65200;49.500;8.654;2023-08-08T12:13:59;100393.28;;;22.70;37.78
76378;BME280;65200;49.500;8.654;2023-08-08T12:16:29;100384.06;;;23.06;38.28
76378;BME280;65200;49.500;8.654;2023-08-08T12:18:56;100393.34;;;23.05;36.90
76378;BME280;65200;49.500;8.654;2023-08-08T12:21:22;100386.66;;;22.56;37.89
76378;BME280;65200;49.500;8.654;2023-08-08T12:23:48;100380.25;;;23.12;38.40
76378;BME280;65200;49.500;8.654;2023-08-08T12:26:16;100385.59;;;22.72;38.24
76378;BME280;65200;49.500;8.654;2023-08-08T12:28:42;100380.47;;;22.90;37.41
76378;BME280;65200;49.500;8.654;2023-08-08T12:31:09;100380.78;;;23.79;36.87
76378;BME280;65200;49.500;8.654;2023-08-08T12:33:37;100383.28;;;23.66;37.73
76378;BME280;65200;49.500;8.654;2023-08-08T12:36:04;100383.28;;;23.71;38.94
76378;BME280;65200;49.500;8.654;2023-08-08T12:38:30;100383.56;;;23.69;36.70
76378;BME280;65200;49.500;8.654;2023-08-08T12:40:57;100378.59;;;23.71;37.47
76378;BME280;65200;49.500;8.654;2023-08-08T12:43:23;100377.53;;;23.67;37.30
76378;BME280;65200;49.500;8.654;2023-08-08T12:45:50;100373.97;;;23.82;35.72
76378;BME280;65200;49.500;8.654;2023-08-08T12:48:16;100370.09;;;23.93;39.14
76378;BME280;65200;49.500;8.654;2023-08-08T12:50:44;100379.97;;;23.94;37.60
76378;BME280;65200;49.500;8.654;2023-08-08T12:53:11;100376.19;;;23.30;35.21
76378;BME280;65200;49.500;8.654;2023-08-08T12:55:37;100369.31;;;23.32;35.50
76378;BME280;65200;49.500;8.654;2023-08-08T12:58:04;100374.75;;;23.92;35.92
76378;BME280;65200;49.500;8.654;2023-08-08T13:00:31;100383.91;;;24.52;35.83